Terminal Aerodrome Forecast
Issued by NWS Hastings, NE

Home | Current Version | Previous Version | Text Only | Print | Product List | Glossary On
Versions: 1 2 3 4 5 6 7 8 9 10 11 12 13 14 15 16
000
FTUS43 KGID 242329
TAFGRI
TAF
KGRI 242329Z 2500/2524 36009KT P6SM -SHRA OVC012
      TEMPO 2500/2504 OVC009
     FM250400 02010KT 5SM -SHRA OVC008
     FM250700 01011KT 4SM SHRA OVC006
     FM251800 36013G20KT P6SM SHRA OVC008=

USA.gov is the U.S. government's official web portal to all federal, state and local government web resources and services.